Archival Weather

Los Angeles Intl

Los Angeles, California (KLAX)

Report from: Thursday, September 21, 2023 9:53 AM PDT
Current time: Saturday, March 2, 2024 1:04 AM PST

Current weather – Weather history – Daily summaries
Weather forecast

Temperature20.0°C (68.0°F)
Dew point15.6°C (60.1°F)
Winds 7 kts (3.6 m/s, 8.1 mph) West-Southwest (240°)
Visibility10 mi. (16.1 km)
Clouds Few clouds 1,500 ft. (457 m)
Scattered clouds 2,400 ft. (732 m)
Ceiling: Overcast 2,900 ft. (884 m)
Altimeter29.95 in.Hg (1014 mB)
Relative humidity76 %
Density altitude807 ft. (246 m)
Sea-level pressure101.4 kPa (1014 mB, 29.94 in.Hg)
Remarks Automated weather observing station with precipitation discriminator
Flight conditions Marginal Visual Meteorological Conditions
Raw dataKLAX 211653Z 24007KT 10SM FEW015 SCT024 OVC029 20/16 A2995 RMK AO2 SLP139 T02000156
An error has occurred. This application may no longer respond until reloaded. Reload 🗙